sensor_id;sensor_type;location;lat;lon;timestamp;pressure;altitude;pressure_sealevel;temperature;humidity
10006;BME280;5042;42.626;23.382;2023-08-06T00:00:54;93322.31;;;20.50;100.00
10006;BME280;5042;42.626;23.382;2023-08-06T00:03:21;93342.56;;;20.51;100.00
10006;BME280;5042;42.626;23.382;2023-08-06T00:05:49;93338.28;;;20.55;100.00
10006;BME280;5042;42.626;23.382;2023-08-06T00:08:16;93319.66;;;20.50;100.00
10006;BME280;5042;42.626;23.382;2023-08-06T00:10:42;93318.16;;;20.39;100.00
10006;BME280;5042;42.626;23.382;2023-08-06T00:13:09;93333.63;;;20.31;100.00
10006;BME280;5042;42.626;23.382;2023-08-06T00:15:36;93319.50;;;20.31;100.00
10006;BME280;5042;42.626;23.382;2023-08-06T00:18:02;93314.44;;;20.34;100.00
10006;BME280;5042;42.626;23.382;2023-08-06T00:20:29;93317.69;;;20.26;100.00
10006;BME280;5042;42.626;23.382;2023-08-06T00:22:57;93319.03;;;20.19;100.00
10006;BME280;5042;42.626;23.382;2023-08-06T00:25:24;93314.00;;;20.17;100.00
10006;BME280;5042;42.626;23.382;2023-08-06T00:27:50;93299.72;;;20.03;100.00
10006;BME280;5042;42.626;23.382;2023-08-06T00:30:17;93306.63;;;20.04;100.00
10006;BME280;5042;42.626;23.382;2023-08-06T00:32:44;93300.94;;;19.56;100.00
10006;BME280;5042;42.626;23.382;2023-08-06T00:35:11;93313.47;;;19.45;100.00
10006;BME280;5042;42.626;23.382;2023-08-06T00:37:38;93309.75;;;19.41;100.00
10006;BME280;5042;42.626;23.382;2023-08-06T00:40:07;93302.56;;;19.46;100.00
10006;BME280;5042;42.626;23.382;2023-08-06T00:42:34;93298.84;;;19.42;100.00
10006;BME280;5042;42.626;23.382;2023-08-06T00:45:01;93303.91;;;19.44;100.00
10006;BME280;5042;42.626;23.382;2023-08-06T00:47:28;93295.88;;;19.59;100.00
10006;BME280;5042;42.626;23.382;2023-08-06T00:49:55;93283.38;;;19.60;100.00
10006;BME280;5042;42.626;23.382;2023-08-06T00:52:22;93286.84;;;19.60;100.00
10006;BME280;5042;42.626;23.382;2023-08-06T00:54:48;93295.38;;;19.52;100.00
10006;BME280;5042;42.626;23.382;2023-08-06T00:57:17;93275.16;;;19.56;100.00
10006;BME280;5042;42.626;23.382;2023-08-06T00:59:44;93273.25;;;19.62;100.00
10006;BME280;5042;42.626;23.382;2023-08-06T01:02:11;93266.59;;;19.64;100.00
10006;BME280;5042;42.626;23.382;2023-08-06T01:04:38;93266.31;;;19.76;100.00
10006;BME280;5042;42.626;23.382;2023-08-06T01:07:12;93257.59;;;19.70;100.00
10006;BME280;5042;42.626;23.382;2023-08-06T01:09:47;93257.31;;;19.62;100.00
10006;BME280;5042;42.626;23.382;2023-08-06T01:12:25;93248.00;;;19.64;100.00
10006;BME280;5042;42.626;23.382;2023-08-06T01:14:59;93242.72;;;19.69;100.00
10006;BME280;5042;42.626;23.382;2023-08-06T01:17:27;93257.31;;;19.72;100.00
10006;BME280;5042;42.626;23.382;2023-08-06T01:19:55;93259.44;;;19.70;100.00
10006;BME280;5042;42.626;23.382;2023-08-06T01:22:23;93238.19;;;19.70;100.00
10006;BME280;5042;42.626;23.382;2023-08-06T01:24:51;93220.63;;;19.69;100.00
10006;BME280;5042;42.626;23.382;2023-08-06T01:27:24;93227.78;;;19.74;100.00
10006;BME280;5042;42.626;23.382;2023-08-06T01:29:58;93227.50;;;19.80;100.00
10006;BME280;5042;42.626;23.382;2023-08-06T01:32:29;93222.66;;;19.87;100.00
10006;BME280;5042;42.626;23.382;2023-08-06T01:34:59;93235.94;;;19.92;100.00
10006;BME280;5042;42.626;23.382;2023-08-06T01:37:28;93232.22;;;19.94;100.00
10006;BME280;5042;42.626;23.382;2023-08-06T01:39:55;93226.91;;;19.94;100.00
10006;BME280;5042;42.626;23.382;2023-08-06T01:42:22;93169.03;;;19.75;100.00
10006;BME280;5042;42.626;23.382;2023-08-06T01:44:49;93220.94;;;20.07;100.00
10006;BME280;5042;42.626;23.382;2023-08-06T01:47:15;93222.00;;;20.11;100.00
10006;BME280;5042;42.626;23.382;2023-08-06T01:49:42;93224.03;;;20.24;100.00
10006;BME280;5042;42.626;23.382;2023-08-06T01:52:09;93214.97;;;20.25;100.00
10006;BME280;5042;42.626;23.382;2023-08-06T01:54:37;93222.47;;;20.18;100.00
10006;BME280;5042;42.626;23.382;2023-08-06T01:57:04;93218.75;;;20.14;100.00
10006;BME280;5042;42.626;23.382;2023-08-06T01:59:31;93218.97;;;20.23;100.00
10006;BME280;5042;42.626;23.382;2023-08-06T02:01:58;93224.03;;;20.24;100.00
10006;BME280;5042;42.626;23.382;2023-08-06T02:04:24;93223.50;;;20.22;100.00
10006;BME280;5042;42.626;23.382;2023-08-06T02:06:51;93217.63;;;20.25;100.00
10006;BME280;5042;42.626;23.382;2023-08-06T02:09:18;93204.84;;;20.27;100.00
10006;BME280;5042;42.626;23.382;2023-08-06T02:11:46;93200.91;;;20.20;100.00
10006;BME280;5042;42.626;23.382;2023-08-06T02:14:12;93202.75;;;20.19;100.00
10006;BME280;5042;42.626;23.382;2023-08-06T02:16:39;93204.59;;;20.24;100.00
10006;BME280;5042;42.626;23.382;2023-08-06T02:19:06;93198.44;;;20.28;100.00
10006;BME280;5042;42.626;23.382;2023-08-06T02:21:32;93215.50;;;20.27;100.00
10006;BME280;5042;42.626;23.382;2023-08-06T02:23:59;93213.38;;;20.24;100.00
10006;BME280;5042;42.626;23.382;2023-08-06T02:26:26;93213.69;;;20.18;100.00
10006;BME280;5042;42.626;23.382;2023-08-06T02:28:54;93236.59;;;20.13;100.00
10006;BME280;5042;42.626;23.382;2023-08-06T02:31:20;93234.50;;;20.10;100.00
10006;BME280;5042;42.626;23.382;2023-08-06T02:33:47;93215.09;;;20.05;100.00
10006;BME280;5042;42.626;23.382;2023-08-06T02:36:14;93217.53;;;20.01;100.00
10006;BME280;5042;42.626;23.382;2023-08-06T02:38:40;93226.44;;;19.76;100.00
10006;BME280;5042;42.626;23.382;2023-08-06T02:41:07;93256.41;;;19.92;100.00
10006;BME280;5042;42.626;23.382;2023-08-06T02:43:34;93266.22;;;19.97;100.00
10006;BME280;5042;42.626;23.382;2023-08-06T02:46:02;93258.81;;;19.94;100.00
10006;BME280;5042;42.626;23.382;2023-08-06T02:48:28;93256.66;;;19.96;100.00
10006;BME280;5042;42.626;23.382;2023-08-06T02:50:57;93231.41;;;19.93;100.00
10006;BME280;5042;42.626;23.382;2023-08-06T02:53:24;93232.16;;;20.04;100.00
10006;BME280;5042;42.626;23.382;2023-08-06T02:55:51;93207.94;;;20.05;100.00
10006;BME280;5042;42.626;23.382;2023-08-06T02:58:18;93143.03;;;19.57;100.00
10006;BME280;5042;42.626;23.382;2023-08-06T03:00:58;93236.91;;;20.07;100.00
10006;BME280;5042;42.626;23.382;2023-08-06T03:03:27;93236.88;;;20.12;100.00
10006;BME280;5042;42.626;23.382;2023-08-06T03:05:53;93216.25;;;19.94;100.00
10006;BME280;5042;42.626;23.382;2023-08-06T03:08:20;93194.94;;;19.99;100.00
10006;BME280;5042;42.626;23.382;2023-08-06T03:10:48;93155.63;;;19.90;100.00
10006;BME280;5042;42.626;23.382;2023-08-06T03:13:15;93172.09;;;19.92;100.00
10006;BME280;5042;42.626;23.382;2023-08-06T03:15:41;93221.81;;;19.97;100.00
10006;BME280;5042;42.626;23.382;2023-08-06T03:18:08;93214.66;;;19.92;100.00
10006;BME280;5042;42.626;23.382;2023-08-06T03:20:36;93191.78;;;19.91;100.00
10006;BME280;5042;42.626;23.382;2023-08-06T03:23:03;93172.72;;;19.74;100.00
10006;BME280;5042;42.626;23.382;2023-08-06T03:25:30;93189.75;;;19.78;100.00
10006;BME280;5042;42.626;23.382;2023-08-06T03:27:56;93228.28;;;19.81;100.00
10006;BME280;5042;42.626;23.382;2023-08-06T03:30:23;93226.44;;;19.81;100.00
10006;BME280;5042;42.626;23.382;2023-08-06T03:32:50;93219.78;;;19.79;100.00
10006;BME280;5042;42.626;23.382;2023-08-06T03:35:16;93232.78;;;19.85;100.00
10006;BME280;5042;42.626;23.382;2023-08-06T03:37:44;93207.28;;;19.79;100.00
10006;BME280;5042;42.626;23.382;2023-08-06T03:40:11;93211.59;;;19.65;100.00
10006;BME280;5042;42.626;23.382;2023-08-06T03:42:38;93236.03;;;19.77;100.00
10006;BME280;5042;42.626;23.382;2023-08-06T03:45:05;93248.69;;;19.90;100.00
10006;BME280;5042;42.626;23.382;2023-08-06T03:47:32;93231.75;;;19.76;100.00
10006;BME280;5042;42.626;23.382;2023-08-06T03:49:59;93230.38;;;19.89;100.00
10006;BME280;5042;42.626;23.382;2023-08-06T03:52:26;93210.50;;;19.66;100.00
10006;BME280;5042;42.626;23.382;2023-08-06T03:54:54;93233.22;;;19.98;100.00
10006;BME280;5042;42.626;23.382;2023-08-06T03:57:20;93247.56;;;20.02;100.00
10006;BME280;5042;42.626;23.382;2023-08-06T03:59:47;93254.63;;;19.77;100.00
10006;BME280;5042;42.626;23.382;2023-08-06T04:02:14;93278.31;;;19.68;100.00
10006;BME280;5042;42.626;23.382;2023-08-06T04:04:40;93277.53;;;19.68;100.00
10006;BME280;5042;42.626;23.382;2023-08-06T04:07:07;93270.06;;;19.60;100.00
10006;BME280;5042;42.626;23.382;2023-08-06T04:09:34;93258.41;;;19.61;100.00
10006;BME280;5042;42.626;23.382;2023-08-06T04:12:04;93248.31;;;19.58;100.00
10006;BME280;5042;42.626;23.382;2023-08-06T04:14:30;93224.91;;;19.55;100.00
10006;BME280;5042;42.626;23.382;2023-08-06T04:16:57;93220.63;;;19.64;100.00
10006;BME280;5042;42.626;23.382;2023-08-06T04:19:24;93222.50;;;19.63;100.00
10006;BME280;5042;42.626;23.382;2023-08-06T04:21:50;93223.25;;;19.79;100.00
10006;BME280;5042;42.626;23.382;2023-08-06T04:24:17;93229.09;;;19.81;100.00
10006;BME280;5042;42.626;23.382;2023-08-06T04:26:44;93227.97;;;19.87;100.00
10006;BME280;5042;42.626;23.382;2023-08-06T04:29:12;93228.44;;;20.00;100.00
10006;BME280;5042;42.626;23.382;2023-08-06T04:31:38;93219.88;;;20.08;100.00
10006;BME280;5042;42.626;23.382;2023-08-06T04:34:05;93215.28;;;20.19;100.00
10006;BME280;5042;42.626;23.382;2023-08-06T04:36:33;93222.63;;;20.32;100.00
10006;BME280;5042;42.626;23.382;2023-08-06T04:39:00;93204.53;;;20.34;100.00
10006;BME280;5042;42.626;23.382;2023-08-06T04:41:26;93192.25;;;20.38;100.00
10006;BME280;5042;42.626;23.382;2023-08-06T04:43:53;93188.25;;;20.41;100.00
10006;BME280;5042;42.626;23.382;2023-08-06T04:46:21;93180.84;;;20.32;100.00
10006;BME280;5042;42.626;23.382;2023-08-06T04:48:47;93187.16;;;20.42;100.00
10006;BME280;5042;42.626;23.382;2023-08-06T04:51:14;93179.75;;;20.39;100.00
10006;BME280;5042;42.626;23.382;2023-08-06T04:53:41;93176.41;;;20.52;100.00
10006;BME280;5042;42.626;23.382;2023-08-06T04:56:07;93159.38;;;20.58;100.00
10006;BME280;5042;42.626;23.382;2023-08-06T04:58:34;93150.81;;;20.61;100.00
10006;BME280;5042;42.626;23.382;2023-08-06T05:01:01;93159.31;;;20.63;100.00
10006;BME280;5042;42.626;23.382;2023-08-06T05:03:29;93164.72;;;20.82;100.00
10006;BME280;5042;42.626;23.382;2023-08-06T05:05:55;93164.97;;;20.86;100.00
10006;BME280;5042;42.626;23.382;2023-08-06T05:08:22;93163.75;;;20.97;100.00
10006;BME280;5042;42.626;23.382;2023-08-06T05:10:49;93168.16;;;21.12;100.00
10006;BME280;5042;42.626;23.382;2023-08-06T05:13:15;93176.47;;;21.72;100.00
10006;BME280;5042;42.626;23.382;2023-08-06T05:15:42;93178.47;;;22.37;100.00
10006;BME280;5042;42.626;23.382;2023-08-06T05:18:11;93178.09;;;22.77;100.00
10006;BME280;5042;42.626;23.382;2023-08-06T05:20:40;93194.75;;;22.88;100.00
10006;BME280;5042;42.626;23.382;2023-08-06T05:23:07;93178.75;;;22.55;100.00
10006;BME280;5042;42.626;23.382;2023-08-06T05:25:34;93169.22;;;22.49;100.00
10006;BME280;5042;42.626;23.382;2023-08-06T05:28:01;93167.69;;;22.29;100.00
10006;BME280;5042;42.626;23.382;2023-08-06T05:30:28;93170.63;;;22.27;100.00
10006;BME280;5042;42.626;23.382;2023-08-06T05:32:55;93177.50;;;21.95;100.00
10006;BME280;5042;42.626;23.382;2023-08-06T05:35:22;93171.06;;;21.34;100.00
10006;BME280;5042;42.626;23.382;2023-08-06T05:37:51;93169.66;;;21.18;100.00
10006;BME280;5042;42.626;23.382;2023-08-06T05:40:17;93170.63;;;21.03;100.00
10006;BME280;5042;42.626;23.382;2023-08-06T05:42:44;93167.78;;;20.94;100.00
10006;BME280;5042;42.626;23.382;2023-08-06T05:45:11;93157.91;;;20.95;100.00
10006;BME280;5042;42.626;23.382;2023-08-06T05:47:37;93163.31;;;20.90;100.00
10006;BME280;5042;42.626;23.382;2023-08-06T05:50:05;93162.31;;;20.86;100.00
10006;BME280;5042;42.626;23.382;2023-08-06T05:52:32;93162.31;;;20.86;100.00
10006;BME280;5042;42.626;23.382;2023-08-06T05:55:00;93170.00;;;21.11;100.00
10006;BME280;5042;42.626;23.382;2023-08-06T05:57:27;93165.75;;;21.10;100.00
10006;BME280;5042;42.626;23.382;2023-08-06T05:59:53;93169.44;;;21.14;100.00
10006;BME280;5042;42.626;23.382;2023-08-06T06:02:20;93175.88;;;21.56;100.00
10006;BME280;5042;42.626;23.382;2023-08-06T06:04:47;93176.69;;;21.57;100.00
10006;BME280;5042;42.626;23.382;2023-08-06T06:07:13;93140.63;;;21.41;100.00
10006;BME280;5042;42.626;23.382;2023-08-06T06:09:40;93177.19;;;21.78;100.00
10006;BME280;5042;42.626;23.382;2023-08-06T06:14:54;93196.88;;;22.39;100.00
10006;BME280;5042;42.626;23.382;2023-08-06T06:17:21;93204.25;;;22.47;100.00
10006;BME280;5042;42.626;23.382;2023-08-06T06:19:48;93215.28;;;22.40;100.00
10006;BME280;5042;42.626;23.382;2023-08-06T06:22:14;93221.75;;;21.96;100.00
10006;BME280;5042;42.626;23.382;2023-08-06T06:24:41;93209.47;;;21.33;100.00
10006;BME280;5042;42.626;23.382;2023-08-06T06:27:09;93219.28;;;21.38;100.00
10006;BME280;5042;42.626;23.382;2023-08-06T06:29:35;93221.84;;;21.48;100.00
10006;BME280;5042;42.626;23.382;2023-08-06T06:32:02;93210.75;;;21.41;100.00
10006;BME280;5042;42.626;23.382;2023-08-06T06:34:29;93238.03;;;21.28;100.00
10006;BME280;5042;42.626;23.382;2023-08-06T06:36:56;93239.28;;;21.11;100.00
10006;BME280;5042;42.626;23.382;2023-08-06T06:39:22;93248.81;;;21.17;100.00
10006;BME280;5042;42.626;23.382;2023-08-06T06:41:49;93248.81;;;21.17;100.00
10006;BME280;5042;42.626;23.382;2023-08-06T06:44:17;93245.13;;;21.13;100.00
10006;BME280;5042;42.626;23.382;2023-08-06T06:46:45;93254.41;;;21.16;100.00
10006;BME280;5042;42.626;23.382;2023-08-06T06:49:11;93254.88;;;21.23;100.00
10006;BME280;5042;42.626;23.382;2023-08-06T06:51:38;93260.84;;;21.39;100.00
10006;BME280;5042;42.626;23.382;2023-08-06T06:54:05;93265.16;;;21.35;100.00
10006;BME280;5042;42.626;23.382;2023-08-06T06:56:31;93267.38;;;21.52;100.00
10006;BME280;5042;42.626;23.382;2023-08-06T06:58:58;93255.78;;;21.37;100.00
10006;BME280;5042;42.626;23.382;2023-08-06T07:01:26;93266.19;;;21.39;100.00
10006;BME280;5042;42.626;23.382;2023-08-06T07:03:53;93258.38;;;21.48;100.00
10006;BME280;5042;42.626;23.382;2023-08-06T07:06:20;93267.38;;;21.52;100.00
10006;BME280;5042;42.626;23.382;2023-08-06T07:08:46;93260.41;;;21.56;100.00
10006;BME280;5042;42.626;23.382;2023-08-06T07:11:13;93265.13;;;21.64;100.00
10006;BME280;5042;42.626;23.382;2023-08-06T07:13:40;93266.06;;;21.73;100.00
10006;BME280;5042;42.626;23.382;2023-08-06T07:16:06;93270.59;;;21.73;100.00
10006;BME280;5042;42.626;23.382;2023-08-06T07:18:34;93267.22;;;21.67;100.00
10006;BME280;5042;42.626;23.382;2023-08-06T07:21:01;93256.75;;;21.71;100.00
10006;BME280;5042;42.626;23.382;2023-08-06T07:23:28;93263.50;;;21.87;100.00
10006;BME280;5042;42.626;23.382;2023-08-06T07:25:54;93261.38;;;22.46;100.00
10006;BME280;5042;42.626;23.382;2023-08-06T07:28:21;93262.34;;;23.21;100.00
10006;BME280;5042;42.626;23.382;2023-08-06T07:30:48;93262.66;;;24.02;100.00
10006;BME280;5042;42.626;23.382;2023-08-06T07:33:15;93266.19;;;24.62;100.00
10006;BME280;5042;42.626;23.382;2023-08-06T07:35:43;93270.69;;;25.20;100.00
10006;BME280;5042;42.626;23.382;2023-08-06T07:38:09;93269.97;;;25.68;100.00
10006;BME280;5042;42.626;23.382;2023-08-06T07:40:36;93263.31;;;26.14;100.00
10006;BME280;5042;42.626;23.382;2023-08-06T07:43:03;93275.09;;;26.79;100.00
10006;BME280;5042;42.626;23.382;2023-08-06T07:45:33;93283.38;;;27.39;100.00
10006;BME280;5042;42.626;23.382;2023-08-06T07:48:00;93282.44;;;27.35;100.00
10006;BME280;5042;42.626;23.382;2023-08-06T07:50:26;93233.84;;;27.31;97.43
10006;BME280;5042;42.626;23.382;2023-08-06T07:52:54;93278.69;;;27.74;97.73
10006;BME280;5042;42.626;23.382;2023-08-06T07:55:21;93291.81;;;28.35;99.35
10006;BME280;5042;42.626;23.382;2023-08-06T07:57:48;93285.69;;;28.77;94.19
10006;BME280;5042;42.626;23.382;2023-08-06T08:00:14;93277.00;;;28.92;86.88
10006;BME280;5042;42.626;23.382;2023-08-06T08:02:41;93281.94;;;29.11;92.18
10006;BME280;5042;42.626;23.382;2023-08-06T08:05:08;93269.75;;;29.05;85.75
10006;BME280;5042;42.626;23.382;2023-08-06T08:07:35;93271.81;;;28.87;88.70
10006;BME280;5042;42.626;23.382;2023-08-06T08:10:03;93276.88;;;28.88;84.87
10006;BME280;5042;42.626;23.382;2023-08-06T08:12:30;93277.13;;;29.16;87.92
10006;BME280;5042;42.626;23.382;2023-08-06T08:14:57;93276.78;;;28.97;81.48
10006;BME280;5042;42.626;23.382;2023-08-06T08:17:23;93282.75;;;28.90;83.02
10006;BME280;5042;42.626;23.382;2023-08-06T08:19:50;93291.97;;;29.23;89.90
10006;BME280;5042;42.626;23.382;2023-08-06T08:22:17;93287.53;;;29.39;88.35
10006;BME280;5042;42.626;23.382;2023-08-06T08:24:43;93284.47;;;29.28;82.67
10006;BME280;5042;42.626;23.382;2023-08-06T08:27:11;93265.94;;;29.51;78.92
10006;BME280;5042;42.626;23.382;2023-08-06T08:29:38;93290.03;;;29.56;74.07
10006;BME280;5042;42.626;23.382;2023-08-06T08:32:05;93280.78;;;29.45;81.81
10006;BME280;5042;42.626;23.382;2023-08-06T08:34:32;93285.84;;;29.47;84.16
10006;BME280;5042;42.626;23.382;2023-08-06T08:36:59;93283.47;;;29.33;83.23
10006;BME280;5042;42.626;23.382;2023-08-06T08:39:25;93281.50;;;29.54;87.31
10006;BME280;5042;42.626;23.382;2023-08-06T08:41:52;93289.47;;;29.63;75.36
10006;BME280;5042;42.626;23.382;2023-08-06T08:44:20;93276.75;;;29.51;73.87
10006;BME280;5042;42.626;23.382;2023-08-06T08:46:49;93274.47;;;29.29;82.45
10006;BME280;5042;42.626;23.382;2023-08-06T08:49:16;93270.16;;;29.28;76.55
10006;BME280;5042;42.626;23.382;2023-08-06T08:51:44;93273.28;;;29.17;72.81
10006;BME280;5042;42.626;23.382;2023-08-06T08:54:13;93268.34;;;29.20;75.55
10006;BME280;5042;42.626;23.382;2023-08-06T08:56:41;93274.09;;;29.30;74.82
10006;BME280;5042;42.626;23.382;2023-08-06T08:59:09;93265.47;;;29.37;77.62
10006;BME280;5042;42.626;23.382;2023-08-06T09:01:38;93265.16;;;29.51;73.41
10006;BME280;5042;42.626;23.382;2023-08-06T09:04:06;93269.16;;;29.78;74.25
10006;BME280;5042;42.626;23.382;2023-08-06T09:06:37;93265.41;;;29.58;72.01
10006;BME280;5042;42.626;23.382;2023-08-06T09:09:08;93256.44;;;29.91;79.50
10006;BME280;5042;42.626;23.382;2023-08-06T09:11:38;93260.25;;;29.90;78.85
10006;BME280;5042;42.626;23.382;2023-08-06T09:14:06;93251.81;;;30.04;79.15
10006;BME280;5042;42.626;23.382;2023-08-06T09:16:34;93235.53;;;29.88;77.92
10006;BME280;5042;42.626;23.382;2023-08-06T09:19:08;93244.53;;;30.04;75.45
10006;BME280;5042;42.626;23.382;2023-08-06T09:21:37;93242.78;;;30.24;76.15
10006;BME280;5042;42.626;23.382;2023-08-06T09:24:07;93258.97;;;30.49;67.53
10006;BME280;5042;42.626;23.382;2023-08-06T09:26:34;93245.63;;;30.68;77.39
10006;BME280;5042;42.626;23.382;2023-08-06T09:29:00;93244.56;;;30.57;78.14
10006;BME280;5042;42.626;23.382;2023-08-06T09:31:32;93244.66;;;30.60;70.86
10006;BME280;5042;42.626;23.382;2023-08-06T09:34:00;93239.75;;;30.38;64.43
10006;BME280;5042;42.626;23.382;2023-08-06T09:36:28;93238.31;;;30.04;67.48
10006;BME280;5042;42.626;23.382;2023-08-06T09:38:55;93245.75;;;29.82;63.58
10006;BME280;5042;42.626;23.382;2023-08-06T09:41:26;93237.53;;;29.78;63.15
10006;BME280;5042;42.626;23.382;2023-08-06T09:43:54;93224.81;;;29.91;72.90
10006;BME280;5042;42.626;23.382;2023-08-06T09:46:20;93229.31;;;30.12;70.45
10006;BME280;5042;42.626;23.382;2023-08-06T09:48:47;93231.78;;;30.17;65.04
10006;BME280;5042;42.626;23.382;2023-08-06T09:51:15;93133.53;;;29.11;61.74
10006;BME280;5042;42.626;23.382;2023-08-06T09:53:45;93232.19;;;29.33;62.07
10006;BME280;5042;42.626;23.382;2023-08-06T09:56:14;93081.22;;;27.91;68.39
10006;BME280;5042;42.626;23.382;2023-08-06T09:58:42;93237.38;;;28.71;66.83
10006;BME280;5042;42.626;23.382;2023-08-06T10:01:11;93237.13;;;28.34;65.98
10006;BME280;5042;42.626;23.382;2023-08-06T10:03:39;93230.09;;;28.21;68.91
10006;BME280;5042;42.626;23.382;2023-08-06T10:06:07;93229.47;;;27.95;69.47
10006;BME280;5042;42.626;23.382;2023-08-06T10:08:34;93240.44;;;28.19;72.96
10006;BME280;5042;42.626;23.382;2023-08-06T10:11:03;93250.22;;;28.45;66.56
10006;BME280;5042;42.626;23.382;2023-08-06T10:13:32;93242.91;;;28.87;71.90
10006;BME280;5042;42.626;23.382;2023-08-06T10:16:00;93250.72;;;29.01;73.13
10006;BME280;5042;42.626;23.382;2023-08-06T10:18:27;93247.03;;;29.51;78.97
10006;BME280;5042;42.626;23.382;2023-08-06T10:20:55;93246.41;;;29.91;67.20
10006;BME280;5042;42.626;23.382;2023-08-06T10:23:33;93258.69;;;30.38;69.05
10006;BME280;5042;42.626;23.382;2023-08-06T10:26:01;93252.03;;;30.11;60.25
10006;BME280;5042;42.626;23.382;2023-08-06T10:28:34;93258.94;;;29.84;60.50
10006;BME280;5042;42.626;23.382;2023-08-06T10:31:01;93259.09;;;29.08;63.54
10006;BME280;5042;42.626;23.382;2023-08-06T10:33:41;93263.19;;;28.72;65.02
10006;BME280;5042;42.626;23.382;2023-08-06T10:36:08;93268.81;;;28.38;70.32
10006;BME280;5042;42.626;23.382;2023-08-06T10:38:44;93263.53;;;27.99;74.67
10006;BME280;5042;42.626;23.382;2023-08-06T10:41:21;93266.47;;;27.77;70.40
10006;BME280;5042;42.626;23.382;2023-08-06T10:43:49;93270.22;;;27.46;80.46
10006;BME280;5042;42.626;23.382;2023-08-06T10:46:27;93238.00;;;27.02;75.09
10006;BME280;5042;42.626;23.382;2023-08-06T10:48:54;93268.44;;;26.68;79.41
10006;BME280;5042;42.626;23.382;2023-08-06T10:51:20;93262.09;;;26.64;82.62
10006;BME280;5042;42.626;23.382;2023-08-06T10:53:49;93267.50;;;26.55;81.96
10006;BME280;5042;42.626;23.382;2023-08-06T10:56:19;93269.22;;;26.60;84.36
10006;BME280;5042;42.626;23.382;2023-08-06T10:58:48;93264.91;;;26.50;82.41
10006;BME280;5042;42.626;23.382;2023-08-06T11:01:15;93272.34;;;26.44;84.65
10006;BME280;5042;42.626;23.382;2023-08-06T11:03:43;93275.66;;;26.33;80.95
10006;BME280;5042;42.626;23.382;2023-08-06T11:06:10;93292.25;;;26.35;86.23
10006;BME280;5042;42.626;23.382;2023-08-06T11:08:47;93292.41;;;26.30;82.17
10006;BME280;5042;42.626;23.382;2023-08-06T11:11:15;93257.59;;;26.07;81.55
10006;BME280;5042;42.626;23.382;2023-08-06T11:13:45;93261.44;;;26.23;85.13
10006;BME280;5042;42.626;23.382;2023-08-06T11:16:12;93293.56;;;26.81;92.92
10006;BME280;5042;42.626;23.382;2023-08-06T11:18:40;93264.13;;;26.93;80.83
10006;BME280;5042;42.626;23.382;2023-08-06T11:21:06;93295.88;;;27.43;80.72
10006;BME280;5042;42.626;23.382;2023-08-06T11:23:34;93306.59;;;27.61;82.81
10006;BME280;5042;42.626;23.382;2023-08-06T11:26:01;93302.56;;;27.76;77.63
10006;BME280;5042;42.626;23.382;2023-08-06T11:28:28;93298.31;;;28.13;87.98
10006;BME280;5042;42.626;23.382;2023-08-06T11:30:56;93310.50;;;28.19;86.94
10006;BME280;5042;42.626;23.382;2023-08-06T11:33:27;93303.06;;;27.69;80.49
10006;BME280;5042;42.626;23.382;2023-08-06T11:35:55;93304.59;;;27.87;75.61
10006;BME280;5042;42.626;23.382;2023-08-06T11:38:25;93308.91;;;28.18;74.23
10006;BME280;5042;42.626;23.382;2023-08-06T11:40:52;93309.44;;;28.32;71.66
10006;BME280;5042;42.626;23.382;2023-08-06T11:43:19;93309.69;;;27.80;69.69
10006;BME280;5042;42.626;23.382;2023-08-06T11:45:48;93310.25;;;27.56;74.56
10006;BME280;5042;42.626;23.382;2023-08-06T11:48:16;93300.31;;;27.39;80.43
10006;BME280;5042;42.626;23.382;2023-08-06T11:50:43;93260.38;;;26.77;78.21
10006;BME280;5042;42.626;23.382;2023-08-06T11:53:12;93274.13;;;26.67;81.40
10006;BME280;5042;42.626;23.382;2023-08-06T11:55:39;93297.69;;;26.61;78.46
10006;BME280;5042;42.626;23.382;2023-08-06T11:58:06;93304.28;;;26.46;81.55
10006;BME280;5042;42.626;23.382;2023-08-06T12:00:33;93301.56;;;26.20;89.57
10006;BME280;5042;42.626;23.382;2023-08-06T12:03:00;93299.00;;;26.06;94.80
10006;BME280;5042;42.626;23.382;2023-08-06T12:05:32;93272.06;;;25.80;93.91
10006;BME280;5042;42.626;23.382;2023-08-06T12:08:01;93302.44;;;25.89;100.00
10006;BME280;5042;42.626;23.382;2023-08-06T12:10:29;93281.47;;;25.69;94.69
10006;BME280;5042;42.626;23.382;2023-08-06T12:12:56;93300.91;;;25.66;95.16
10006;BME280;5042;42.626;23.382;2023-08-06T12:15:23;93294.75;;;25.65;92.19
10006;BME280;5042;42.626;23.382;2023-08-06T12:17:50;93278.56;;;25.88;97.18
10006;BME280;5042;42.626;23.382;2023-08-06T12:20:17;93280.88;;;26.20;94.10
10006;BME280;5042;42.626;23.382;2023-08-06T12:22:45;93280.41;;;26.27;96.37
10006;BME280;5042;42.626;23.382;2023-08-06T12:25:12;93278.34;;;26.33;91.37
10006;BME280;5042;42.626;23.382;2023-08-06T12:27:40;93281.66;;;26.38;92.47
10006;BME280;5042;42.626;23.382;2023-08-06T12:30:08;93265.69;;;26.16;87.72
10006;BME280;5042;42.626;23.382;2023-08-06T12:32:35;93283.69;;;26.24;91.71
10006;BME280;5042;42.626;23.382;2023-08-06T12:35:02;93281.66;;;26.30;92.18
10006;BME280;5042;42.626;23.382;2023-08-06T12:37:30;93279.28;;;26.28;90.79
10006;BME280;5042;42.626;23.382;2023-08-06T12:39:58;93289.91;;;26.42;95.12
10006;BME280;5042;42.626;23.382;2023-08-06T12:42:24;93297.63;;;26.52;93.07
10006;BME280;5042;42.626;23.382;2023-08-06T12:44:51;93300.53;;;26.56;94.05
10006;BME280;5042;42.626;23.382;2023-08-06T12:47:18;93283.28;;;26.48;94.06
10006;BME280;5042;42.626;23.382;2023-08-06T12:49:45;93293.81;;;26.18;91.66
10006;BME280;5042;42.626;23.382;2023-08-06T12:52:12;93285.59;;;26.23;94.93
10006;BME280;5042;42.626;23.382;2023-08-06T12:54:40;93288.94;;;26.38;98.26
10006;BME280;5042;42.626;23.382;2023-08-06T12:57:08;93282.47;;;26.39;99.79
10006;BME280;5042;42.626;23.382;2023-08-06T12:59:35;93288.31;;;26.41;99.81